createdAt,value
2019-01-17T00:01:08.058Z,15.00
2019-01-17T00:03:06.049Z,13.00
2019-01-17T00:05:15.763Z,8.20
2019-01-17T00:07:09.987Z,9.20
2019-01-17T00:09:16.980Z,10.00
2019-01-17T00:11:06.422Z,13.00
2019-01-17T00:13:05.784Z,13.40
2019-01-17T00:15:03.436Z,13.80
2019-01-17T00:17:06.503Z,9.60
2019-01-17T00:19:04.064Z,10.40
2019-01-17T00:21:03.185Z,9.80
2019-01-17T00:22:51.979Z,17.40
2019-01-17T00:24:48.574Z,10.00
2019-01-17T00:26:43.172Z,16.00
2019-01-17T00:28:32.331Z,12.40
2019-01-17T00:30:28.179Z,11.00
2019-01-17T00:32:21.213Z,3.60
2019-01-17T00:34:19.077Z,13.00
2019-01-17T00:36:04.755Z,13.80
2019-01-17T00:37:58.527Z,8.80
2019-01-17T00:39:55.757Z,12.20
2019-01-17T00:41:52.493Z,11.00
2019-01-17T00:44:05.122Z,13.40
2019-01-17T00:45:57.612Z,13.00
2019-01-17T00:47:52.192Z,11.60
2019-01-17T00:49:52.822Z,15.00
2019-01-17T00:51:48.046Z,13.20
2019-01-17T00:54:00.527Z,8.60
2019-01-17T00:55:55.702Z,14.40
2019-01-17T00:57:48.173Z,14.60
2019-01-17T00:59:46.914Z,14.80
2019-01-17T01:01:42.240Z,9.00
2019-01-17T01:03:48.065Z,14.20
2019-01-17T01:05:37.300Z,10.20
2019-01-17T01:07:35.944Z,15.00
2019-01-17T01:09:28.186Z,18.20
2019-01-17T01:11:22.926Z,15.00
2019-01-17T01:13:24.011Z,15.20
2019-01-17T01:15:16.746Z,15.60
2019-01-17T01:17:14.319Z,7.60
2019-01-17T01:19:15.243Z,10.00
2019-01-17T01:21:14.264Z,8.80
2019-01-17T01:23:14.363Z,11.20
2019-01-17T01:25:08.689Z,11.20
2019-01-17T01:27:06.452Z,3.20
2019-01-17T01:29:09.563Z,9.00
2019-01-17T01:31:12.222Z,10.40
2019-01-17T01:33:04.286Z,6.80
2019-01-17T01:35:06.332Z,10.20
2019-01-17T01:37:03.791Z,9.40
2019-01-17T01:39:14.326Z,9.60
2019-01-17T01:41:17.152Z,12.20
2019-01-17T01:43:09.895Z,10.00
2019-01-17T01:45:15.634Z,12.20
2019-01-17T01:47:08.370Z,11.00
2019-01-17T01:49:11.715Z,9.80
2019-01-17T01:51:04.232Z,9.20
2019-01-17T01:53:08.703Z,8.00
2019-01-17T01:54:43.943Z,6.80
2019-01-17T01:56:28.192Z,13.60
2019-01-17T01:58:03.363Z,8.60
2019-01-17T01:59:41.571Z,9.20
2019-01-17T02:01:16.864Z,6.60
2019-01-17T02:02:52.647Z,12.40
2019-01-17T02:04:30.339Z,12.60
2019-01-17T02:06:07.249Z,12.00
2019-01-17T02:07:42.631Z,10.60
2019-01-17T02:09:19.771Z,10.60
2019-01-17T02:10:55.102Z,9.00
2019-01-17T02:12:30.690Z,7.80
2019-01-17T02:14:06.626Z,9.40
2019-01-17T02:15:44.555Z,9.00
2019-01-17T02:17:23.162Z,8.00
2019-01-17T02:18:58.458Z,9.40
2019-01-17T02:20:33.944Z,7.40
2019-01-17T02:22:09.140Z,7.80
2019-01-17T02:23:47.852Z,10.00
2019-01-17T02:25:23.163Z,9.40
2019-01-17T02:26:58.383Z,6.40
2019-01-17T02:28:33.923Z,4.00
2019-01-17T02:30:09.577Z,3.20
2019-01-17T02:31:44.909Z,10.80
2019-01-17T02:33:20.192Z,5.80
2019-01-17T02:34:55.727Z,9.00
2019-01-17T02:36:31.392Z,6.40
2019-01-17T02:38:06.852Z,4.40
2019-01-17T02:39:42.235Z,6.00
2019-01-17T02:41:17.497Z,6.20
2019-01-17T02:42:55.205Z,6.00
2019-01-17T02:44:31.015Z,6.20
2019-01-17T02:46:10.214Z,11.40
2019-01-17T02:47:52.515Z,9.60
2019-01-17T02:49:27.778Z,6.20
2019-01-17T02:51:03.325Z,5.80
2019-01-17T02:52:41.851Z,6.40
2019-01-17T02:54:17.430Z,6.80
2019-01-17T02:55:56.347Z,4.00
2019-01-17T02:57:31.511Z,4.80
2019-01-17T02:59:08.422Z,5.20
2019-01-17T03:00:43.892Z,6.00
2019-01-17T03:02:19.098Z,6.80
2019-01-17T03:03:56.372Z,3.20
2019-01-17T03:05:31.630Z,6.20
2019-01-17T03:07:08.408Z,3.40
2019-01-17T03:08:44.324Z,6.00
2019-01-17T03:10:24.322Z,2.60
2019-01-17T03:11:59.779Z,3.00
2019-01-17T03:13:35.244Z,3.40
2019-01-17T03:15:12.304Z,4.00
2019-01-17T03:16:50.177Z,3.20
2019-01-17T03:18:28.492Z,3.00
2019-01-17T03:20:03.734Z,3.00
2019-01-17T03:21:39.339Z,5.60
2019-01-17T03:23:14.587Z,7.00
2019-01-17T03:24:52.657Z,6.20
2019-01-17T03:26:27.943Z,9.60
2019-01-17T03:28:05.626Z,5.60
2019-01-17T03:29:41.212Z,2.60
2019-01-17T03:31:19.184Z,3.00
2019-01-17T03:32:54.750Z,4.00
2019-01-17T03:34:32.721Z,6.00
2019-01-17T03:36:07.985Z,5.60
2019-01-17T03:37:43.296Z,3.80
2019-01-17T03:39:19.634Z,4.00
2019-01-17T03:40:56.985Z,5.60
2019-01-17T03:42:33.303Z,7.00
2019-01-17T03:44:08.985Z,6.00
2019-01-17T03:45:44.564Z,5.20
2019-01-17T03:47:20.280Z,3.40
2019-01-17T03:48:55.520Z,3.00
2019-01-17T03:50:30.694Z,6.40
2019-01-17T03:52:06.192Z,3.80
2019-01-17T03:53:41.504Z,6.40
2019-01-17T03:55:19.990Z,4.40
2019-01-17T03:56:55.170Z,4.80
2019-01-17T03:58:30.505Z,2.40
2019-01-17T04:00:09.214Z,3.00
2019-01-17T04:01:44.416Z,4.20
2019-01-17T04:03:20.292Z,5.20
2019-01-17T04:04:55.461Z,3.60
2019-01-17T04:06:30.634Z,4.00
2019-01-17T04:08:05.905Z,3.40
2019-01-17T04:09:49.719Z,3.60
2019-01-17T04:13:05.984Z,5.20
2019-01-17T04:14:41.281Z,3.80
2019-01-17T04:16:16.525Z,1.00
2019-01-17T04:17:52.129Z,3.80
2019-01-17T04:19:27.426Z,3.00
2019-01-17T04:21:03.112Z,4.20
2019-01-17T04:22:40.447Z,2.60
2019-01-17T04:24:16.260Z,4.00
2019-01-17T04:25:54.193Z,3.80
2019-01-17T04:27:29.854Z,4.00
2019-01-17T04:29:05.248Z,6.80
2019-01-17T04:30:43.318Z,4.00
2019-01-17T04:32:18.560Z,4.00
2019-01-17T04:33:54.152Z,7.00
2019-01-17T04:35:30.026Z,3.80
2019-01-17T04:37:06.359Z,7.60
2019-01-17T04:38:41.593Z,7.40
2019-01-17T04:40:16.771Z,6.00
2019-01-17T04:41:52.978Z,9.00
2019-01-17T04:43:32.991Z,7.00
2019-01-17T04:45:08.568Z,6.80
2019-01-17T04:46:45.173Z,6.60
2019-01-17T04:48:20.972Z,12.80
2019-01-17T04:49:56.699Z,8.60
2019-01-17T04:51:32.078Z,7.00
2019-01-17T04:53:07.514Z,9.20
2019-01-17T04:54:47.053Z,9.00
2019-01-17T04:56:22.991Z,6.40
2019-01-17T04:57:59.002Z,12.00
2019-01-17T04:59:34.198Z,11.60
2019-01-17T05:01:10.029Z,8.60
2019-01-17T05:02:45.337Z,7.00
2019-01-17T05:04:20.566Z,5.40
2019-01-17T05:05:56.563Z,7.00
2019-01-17T05:07:32.208Z,3.40
2019-01-17T05:09:09.103Z,6.00
2019-01-17T05:10:45.534Z,6.00
2019-01-17T05:12:21.524Z,3.40
2019-01-17T05:13:57.784Z,3.00
2019-01-17T05:15:33.062Z,3.80
2019-01-17T05:17:09.015Z,3.00
2019-01-17T05:18:44.694Z,4.00
2019-01-17T05:20:22.164Z,3.60
2019-01-17T05:21:58.356Z,3.00
2019-01-17T05:23:35.630Z,3.20
2019-01-17T05:25:12.960Z,3.00
2019-01-17T05:26:49.142Z,6.80
2019-01-17T05:28:24.755Z,4.80
2019-01-17T05:30:00.448Z,4.00
2019-01-17T05:31:39.806Z,3.20
2019-01-17T05:33:16.473Z,4.40
2019-01-17T05:34:58.371Z,3.20
2019-01-17T05:36:34.780Z,3.00
2019-01-17T05:38:12.810Z,4.40
2019-01-17T05:39:48.914Z,3.00
2019-01-17T05:41:24.936Z,3.60
2019-01-17T05:43:00.645Z,3.60
2019-01-17T05:44:36.201Z,5.20
2019-01-17T05:46:13.921Z,3.20
2019-01-17T05:47:49.616Z,4.40
2019-01-17T05:49:25.664Z,5.60
2019-01-17T05:51:01.795Z,3.40
2019-01-17T05:52:37.143Z,5.20
2019-01-17T05:54:12.485Z,4.40
2019-01-17T05:55:50.446Z,4.00
2019-01-17T05:57:26.234Z,3.00
2019-01-17T05:59:03.710Z,3.60
2019-01-17T06:00:39.971Z,3.60
2019-01-17T06:02:19.072Z,3.80
2019-01-17T06:03:54.851Z,3.00
2019-01-17T06:05:37.328Z,4.00
2019-01-17T06:07:16.500Z,3.00
2019-01-17T06:08:52.280Z,4.00
2019-01-17T06:10:27.589Z,6.00
2019-01-17T06:12:03.088Z,5.40
2019-01-17T06:13:40.302Z,3.20
2019-01-17T06:15:22.426Z,1.80
2019-01-17T06:17:03.909Z,3.00
2019-01-17T06:18:39.432Z,3.60
2019-01-17T06:20:15.981Z,1.00
2019-01-17T06:21:57.306Z,1.80
2019-01-17T06:23:36.253Z,1.80
2019-01-17T06:25:14.629Z,1.40
2019-01-17T06:26:51.201Z,3.20
2019-01-17T06:28:27.188Z,2.20
2019-01-17T06:30:05.144Z,1.40
2019-01-17T06:31:40.759Z,3.00
2019-01-17T06:33:19.600Z,3.00
2019-01-17T06:34:56.736Z,3.00
2019-01-17T06:36:32.970Z,2.60
2019-01-17T06:38:08.204Z,4.00
2019-01-17T06:39:43.843Z,3.60
2019-01-17T06:41:24.638Z,1.80
2019-01-17T06:42:59.876Z,4.40
2019-01-17T06:44:37.979Z,3.00
2019-01-17T06:46:15.514Z,3.00
2019-01-17T06:47:56.411Z,3.00
2019-01-17T06:49:36.785Z,7.00
2019-01-17T06:51:16.710Z,3.40
2019-01-17T06:52:55.093Z,6.00
2019-01-17T06:54:30.528Z,12.40
2019-01-17T06:56:05.917Z,23.60
2019-01-17T06:57:46.184Z,18.00
2019-01-17T06:59:23.422Z,14.80
2019-01-17T07:00:59.268Z,6.00
2019-01-17T07:02:39.878Z,6.80
2019-01-17T07:04:15.472Z,3.00
2019-01-17T07:05:50.811Z,5.20
2019-01-17T07:07:26.923Z,4.80
2019-01-17T07:09:05.856Z,6.20
2019-01-17T07:10:41.119Z,5.20
2019-01-17T07:12:16.366Z,4.00
2019-01-17T07:13:52.015Z,6.40
2019-01-17T07:15:28.015Z,5.60
2019-01-17T07:17:03.373Z,3.80
2019-01-17T07:18:39.254Z,4.80
2019-01-17T07:20:15.775Z,5.20
2019-01-17T07:21:56.518Z,6.00
2019-01-17T07:23:31.939Z,3.00
2019-01-17T07:25:08.493Z,4.00
2019-01-17T07:26:43.926Z,3.00
2019-01-17T07:28:19.424Z,1.80
2019-01-17T07:29:55.348Z,7.00
2019-01-17T07:31:31.159Z,9.00
2019-01-17T07:33:06.597Z,9.20
2019-01-17T07:34:41.959Z,6.00
2019-01-17T07:36:21.898Z,10.00
2019-01-17T07:37:57.537Z,11.00
2019-01-17T07:39:33.234Z,9.80
2019-01-17T07:41:09.231Z,9.40
2019-01-17T07:42:44.951Z,12.00
2019-01-17T07:44:20.562Z,14.20
2019-01-17T07:45:57.839Z,11.60
2019-01-17T07:47:33.157Z,13.00
2019-01-17T07:49:08.948Z,12.80
2019-01-17T07:50:47.283Z,11.60
2019-01-17T07:52:25.898Z,14.40
2019-01-17T07:54:02.772Z,4.40
2019-01-17T07:55:47.668Z,15.80
2019-01-17T07:57:23.263Z,10.20
2019-01-17T07:59:04.629Z,15.20
2019-01-17T08:00:41.844Z,11.60
2019-01-17T08:02:19.779Z,13.40
2019-01-17T08:03:57.261Z,17.40
2019-01-17T08:05:35.811Z,11.40
2019-01-17T08:07:11.697Z,11.00
2019-01-17T08:08:48.616Z,14.80
2019-01-17T08:10:24.027Z,12.40
2019-01-17T08:12:04.907Z,9.60
2019-01-17T08:13:38.563Z,12.20
2019-01-17T08:15:15.812Z,18.00
2019-01-17T08:16:56.086Z,15.40
2019-01-17T08:18:31.936Z,12.80
2019-01-17T08:20:09.838Z,9.60
2019-01-17T08:21:46.619Z,7.80
2019-01-17T08:23:22.848Z,12.60
2019-01-17T08:24:58.292Z,15.60
2019-01-17T08:26:33.607Z,13.20
2019-01-17T08:28:12.872Z,16.00
2019-01-17T08:29:49.708Z,17.80
2019-01-17T08:31:27.249Z,9.60
2019-01-17T08:33:02.627Z,11.60
2019-01-17T08:34:40.720Z,12.00
2019-01-17T08:36:16.632Z,10.00
2019-01-17T08:37:53.456Z,12.00
2019-01-17T08:39:32.503Z,14.20
2019-01-17T08:41:06.446Z,9.20
2019-01-17T08:42:44.235Z,11.80
2019-01-17T08:44:19.477Z,10.80
2019-01-17T08:45:55.125Z,18.60
2019-01-17T08:47:31.009Z,7.00
2019-01-17T08:49:06.240Z,10.00
2019-01-17T08:50:43.535Z,12.00
2019-01-17T08:52:28.164Z,12.00
2019-01-17T08:54:05.365Z,8.20
2019-01-17T08:55:43.622Z,12.80
2019-01-17T08:57:21.081Z,9.60
2019-01-17T08:58:58.908Z,10.40
2019-01-17T09:00:34.656Z,13.80
2019-01-17T09:02:13.497Z,14.40
2019-01-17T09:03:50.171Z,7.00
2019-01-17T09:05:26.540Z,9.00
2019-01-17T09:07:05.258Z,11.60
2019-01-17T09:08:40.995Z,13.00
2019-01-17T09:10:30.734Z,10.60
2019-01-17T09:12:05.754Z,12.40
2019-01-17T09:13:41.369Z,8.20
2019-01-17T09:15:18.405Z,9.20
2019-01-17T09:16:53.784Z,9.60
2019-01-17T09:18:32.547Z,11.60
2019-01-17T09:20:11.992Z,9.80
2019-01-17T09:21:50.108Z,7.40
2019-01-17T09:23:25.340Z,10.00
2019-01-17T09:25:03.119Z,9.80
2019-01-17T09:26:38.478Z,11.60
2019-01-17T09:28:22.334Z,9.00
2019-01-17T09:29:58.546Z,2.60
2019-01-17T09:31:34.278Z,5.20
2019-01-17T09:33:09.928Z,10.40
2019-01-17T09:34:48.281Z,4.00
2019-01-17T09:36:23.637Z,8.60
2019-01-17T09:37:59.563Z,9.00
2019-01-17T09:39:35.627Z,6.20
2019-01-17T09:41:12.792Z,11.80
2019-01-17T09:42:51.459Z,8.20
2019-01-17T09:44:27.139Z,7.00
2019-01-17T09:46:03.373Z,7.40
2019-01-17T09:47:38.705Z,23.20
2019-01-17T09:49:17.221Z,6.00
2019-01-17T09:50:55.743Z,6.00
2019-01-17T09:52:32.891Z,5.20
2019-01-17T09:54:11.631Z,6.60
2019-01-17T09:55:47.296Z,4.80
2019-01-17T09:57:24.352Z,4.00
2019-01-17T09:59:01.615Z,7.80
2019-01-17T10:00:38.352Z,4.00
2019-01-17T10:02:13.778Z,6.00
2019-01-17T10:03:57.204Z,3.80
2019-01-17T10:05:35.912Z,6.00
2019-01-17T10:07:17.742Z,6.00
2019-01-17T10:09:12.933Z,10.00
2019-01-17T10:10:56.886Z,4.20
2019-01-17T10:12:35.867Z,4.00
2019-01-17T10:14:16.124Z,3.40
2019-01-17T10:16:23.243Z,3.40
2019-01-17T10:19:10.116Z,4.00
2019-01-17T10:21:33.517Z,3.80
2019-01-17T10:23:49.431Z,5.20
2019-01-17T10:26:11.434Z,3.00
2019-01-17T10:28:02.339Z,3.00
2019-01-17T10:30:31.940Z,3.20
2019-01-17T10:33:05.118Z,1.80
2019-01-17T10:35:23.580Z,3.60
2019-01-17T10:37:38.680Z,1.80
2019-01-17T10:40:13.862Z,4.00
2019-01-17T10:42:12.746Z,3.00
2019-01-17T10:44:20.622Z,3.00
2019-01-17T10:46:47.528Z,3.00
2019-01-17T10:48:48.942Z,3.60
2019-01-17T10:50:57.356Z,3.20
2019-01-17T10:53:11.980Z,6.40
2019-01-17T10:55:31.889Z,4.00
2019-01-17T10:57:33.748Z,2.20
2019-01-17T10:59:29.451Z,1.00
2019-01-17T11:02:07.206Z,0.80
2019-01-17T11:04:13.336Z,3.20
2019-01-17T11:06:44.328Z,1.00
2019-01-17T11:09:02.719Z,1.40
2019-01-17T11:11:28.242Z,0.60
2019-01-17T11:13:32.281Z,3.00
2019-01-17T11:15:35.328Z,1.40
2019-01-17T11:17:58.977Z,1.00
2019-01-17T11:20:15.353Z,1.00
2019-01-17T11:22:40.318Z,3.00
2019-01-17T11:24:44.733Z,1.00
2019-01-17T11:26:52.460Z,2.20
2019-01-17T11:28:58.119Z,1.40
2019-01-17T11:31:37.653Z,0.80
2019-01-17T11:33:44.564Z,3.20
2019-01-17T11:36:02.073Z,1.00
2019-01-17T11:38:10.623Z,1.80
2019-01-17T11:40:13.363Z,0.60
2019-01-17T11:42:33.635Z,2.60
2019-01-17T11:44:48.905Z,4.00
2019-01-17T11:47:05.349Z,3.20
2019-01-17T11:49:27.970Z,3.40
2019-01-17T11:51:18.475Z,3.00
2019-01-17T11:53:57.917Z,3.60
2019-01-17T11:56:00.083Z,3.00
2019-01-17T11:58:22.234Z,1.00
2019-01-17T12:00:35.647Z,1.80
2019-01-17T12:02:53.996Z,1.00
2019-01-17T12:04:46.623Z,4.20
2019-01-17T12:06:22.889Z,1.00
2019-01-17T12:08:08.465Z,4.00
2019-01-17T12:09:47.774Z,7.00
2019-01-17T12:11:25.086Z,5.20
2019-01-17T12:13:00.561Z,1.00
2019-01-17T12:14:36.797Z,0.80
2019-01-17T12:16:20.385Z,6.60
2019-01-17T12:17:55.815Z,4.80
2019-01-17T12:19:32.981Z,6.80
2019-01-17T12:21:08.559Z,22.00
2019-01-17T12:22:46.497Z,3.00
2019-01-17T12:24:21.832Z,4.80
2019-01-17T12:25:57.307Z,3.80
2019-01-17T12:27:42.372Z,6.00
2019-01-17T12:29:13.624Z,3.80
2019-01-17T12:30:53.773Z,4.00
2019-01-17T12:32:38.323Z,12.00
2019-01-17T12:34:21.214Z,6.40
2019-01-17T12:35:55.973Z,4.80
2019-01-17T12:37:31.526Z,3.40
2019-01-17T12:39:15.966Z,9.80
2019-01-17T12:40:50.662Z,4.40
2019-01-17T12:42:26.469Z,5.20
2019-01-17T12:44:05.513Z,5.00
2019-01-17T12:45:46.952Z,6.80
2019-01-17T12:47:36.139Z,3.20
2019-01-17T12:49:12.880Z,9.20
2019-01-17T12:50:54.659Z,7.40
2019-01-17T12:52:32.917Z,6.80
2019-01-17T12:54:23.601Z,2.60
2019-01-17T12:56:06.540Z,3.00
2019-01-17T12:57:44.138Z,1.60
2019-01-17T12:59:22.994Z,4.00
2019-01-17T13:01:00.054Z,4.40
2019-01-17T13:02:35.759Z,2.20
2019-01-17T13:04:13.672Z,3.40
2019-01-17T13:05:55.659Z,1.00
2019-01-17T13:07:31.003Z,2.20
2019-01-17T13:09:11.760Z,4.40
2019-01-17T13:10:54.745Z,9.00
2019-01-17T13:12:31.547Z,2.60
2019-01-17T13:14:06.981Z,0.80
2019-01-17T13:15:42.687Z,3.60
2019-01-17T13:17:20.259Z,0.00
2019-01-17T13:18:57.298Z,3.40
2019-01-17T13:20:41.157Z,1.00
2019-01-17T13:22:23.472Z,8.20
2019-01-17T13:23:59.669Z,4.60
2019-01-17T13:25:38.919Z,6.80
2019-01-17T13:27:17.602Z,1.80
2019-01-17T13:28:58.320Z,6.00
2019-01-17T13:30:34.222Z,3.40
2019-01-17T13:32:10.941Z,3.00
2019-01-17T13:33:51.063Z,4.00
2019-01-17T13:35:31.238Z,3.00
2019-01-17T13:37:09.637Z,3.40
2019-01-17T13:38:48.894Z,5.00
2019-01-17T13:40:25.759Z,3.80
2019-01-17T13:42:02.261Z,3.20
2019-01-17T13:43:38.120Z,2.20
2019-01-17T13:45:15.812Z,5.80
2019-01-17T13:46:54.695Z,1.00
2019-01-17T13:48:33.302Z,3.80
2019-01-17T13:50:09.497Z,3.60
2019-01-17T13:51:48.147Z,1.80
2019-01-17T13:53:24.768Z,4.80
2019-01-17T13:55:02.130Z,5.60
2019-01-17T13:56:41.077Z,3.00
2019-01-17T13:58:19.273Z,3.60
2019-01-17T14:00:00.245Z,3.40
2019-01-17T14:01:39.159Z,3.20
2019-01-17T14:03:21.810Z,3.80
2019-01-17T14:05:03.966Z,6.40
2019-01-17T14:06:47.141Z,2.60
2019-01-17T14:08:24.851Z,6.20
2019-01-17T14:10:01.289Z,3.00
2019-01-17T14:11:37.418Z,2.60
2019-01-17T14:13:16.255Z,5.20
2019-01-17T14:14:54.948Z,4.00
2019-01-17T14:16:31.806Z,5.60
2019-01-17T14:18:10.420Z,6.60
2019-01-17T14:19:57.039Z,4.00
2019-01-17T14:21:35.886Z,5.40
2019-01-17T14:23:14.176Z,6.00
2019-01-17T14:24:49.893Z,9.20
2019-01-17T14:26:28.598Z,4.00
2019-01-17T14:28:07.251Z,5.20
2019-01-17T14:29:45.836Z,6.80
2019-01-17T14:31:31.668Z,7.00
2019-01-17T14:33:21.085Z,10.00
2019-01-17T14:34:56.822Z,2.60
2019-01-17T14:36:37.024Z,5.20
2019-01-17T14:38:12.566Z,10.00
2019-01-17T14:39:52.807Z,4.40
2019-01-17T14:41:31.401Z,3.00
2019-01-17T14:43:07.915Z,4.80
2019-01-17T14:44:43.685Z,3.20
2019-01-17T14:46:20.822Z,3.00
2019-01-17T14:48:02.213Z,7.00
2019-01-17T14:49:36.080Z,3.40
2019-01-17T14:51:18.214Z,6.20
2019-01-17T14:52:56.057Z,7.40
2019-01-17T14:54:33.901Z,1.00
2019-01-17T14:56:13.619Z,1.00
2019-01-17T14:57:56.274Z,6.00
2019-01-17T14:59:37.488Z,3.20
2019-01-17T15:01:11.445Z,3.00
2019-01-17T15:02:54.363Z,6.00
2019-01-17T15:04:33.224Z,3.80
2019-01-17T15:06:08.873Z,3.80
2019-01-17T15:07:50.476Z,6.20
2019-01-17T15:09:29.680Z,3.80
2019-01-17T15:11:06.178Z,0.00
2019-01-17T15:12:44.509Z,9.40
2019-01-17T15:14:21.989Z,8.20
2019-01-17T15:16:01.709Z,8.20
2019-01-17T15:17:41.773Z,9.00
2019-01-17T15:19:21.693Z,4.00
2019-01-17T15:20:57.791Z,9.00
2019-01-17T15:22:42.138Z,10.40
2019-01-17T15:24:23.404Z,6.00
2019-01-17T15:26:03.034Z,10.60
2019-01-17T15:27:40.933Z,9.00
2019-01-17T15:29:19.579Z,6.20
2019-01-17T15:31:04.033Z,8.20
2019-01-17T15:32:46.861Z,11.20
2019-01-17T15:34:22.031Z,9.20
2019-01-17T15:35:58.130Z,9.00
2019-01-17T15:37:33.630Z,9.20
2019-01-17T15:39:13.056Z,9.40
2019-01-17T15:41:06.258Z,10.60
2019-01-17T15:42:33.182Z,8.00
2019-01-17T15:44:10.014Z,7.80
2019-01-17T15:45:50.346Z,6.80
2019-01-17T15:47:25.937Z,8.80
2019-01-17T15:49:05.886Z,9.00
2019-01-17T15:50:53.372Z,6.20
2019-01-17T15:52:30.341Z,7.00
2019-01-17T15:54:07.298Z,3.60
2019-01-17T15:55:44.436Z,4.00
2019-01-17T15:57:20.322Z,8.60
2019-01-17T15:59:00.535Z,9.20
2019-01-17T16:00:46.285Z,7.60
2019-01-17T16:02:16.619Z,7.00
2019-01-17T16:03:56.416Z,13.60
2019-01-17T16:05:40.861Z,9.00
2019-01-17T16:07:18.037Z,10.60
2019-01-17T16:08:54.022Z,6.60
2019-01-17T16:10:35.100Z,9.40
2019-01-17T16:12:11.262Z,10.20
2019-01-17T16:13:53.094Z,8.60
2019-01-17T16:15:29.524Z,11.60
2019-01-17T16:17:05.990Z,8.20
2019-01-17T16:18:47.338Z,4.40
2019-01-17T16:20:25.591Z,2.60
2019-01-17T16:22:03.744Z,0.00
2019-01-17T16:23:40.744Z,1.00
2019-01-17T16:25:23.502Z,0.80
2019-01-17T16:27:00.207Z,1.00
2019-01-17T16:28:36.392Z,6.00
2019-01-17T16:30:37.212Z,3.00
2019-01-17T16:32:16.373Z,2.60
2019-01-17T16:33:57.823Z,3.00
2019-01-17T16:35:37.548Z,6.40
2019-01-17T16:37:17.545Z,3.20
2019-01-17T16:38:53.128Z,6.00
2019-01-17T16:40:29.216Z,7.00
2019-01-17T16:42:09.447Z,6.00
2019-01-17T16:43:55.154Z,6.60
2019-01-17T16:45:35.389Z,3.40
2019-01-17T16:47:25.706Z,5.20
2019-01-17T16:49:02.772Z,3.00
2019-01-17T16:50:51.827Z,4.00
2019-01-17T16:52:30.311Z,3.40
2019-01-17T16:54:24.216Z,6.20
2019-01-17T16:56:06.022Z,1.00
2019-01-17T16:57:49.196Z,4.80
2019-01-17T16:59:27.127Z,3.40
2019-01-17T17:01:09.444Z,4.40
2019-01-17T17:02:58.877Z,5.20
2019-01-17T17:04:47.000Z,7.00
2019-01-17T17:06:26.935Z,3.00
2019-01-17T17:08:21.262Z,7.40
2019-01-17T17:09:50.004Z,6.60
2019-01-17T17:11:24.513Z,6.00
2019-01-17T17:13:00.957Z,4.40
2019-01-17T17:14:36.894Z,11.60
2019-01-17T17:16:23.512Z,1.00
2019-01-17T17:18:05.345Z,9.00
2019-01-17T17:19:46.476Z,8.60
2019-01-17T17:21:32.218Z,3.60
2019-01-17T17:23:12.430Z,4.00
2019-01-17T17:24:54.881Z,6.40
2019-01-17T17:26:33.043Z,4.80
2019-01-17T17:28:12.247Z,6.80
2019-01-17T17:29:51.320Z,7.80
2019-01-17T17:31:45.492Z,3.60
2019-01-17T17:33:29.376Z,10.00
2019-01-17T17:35:15.516Z,9.80
2019-01-17T17:36:59.095Z,6.00
2019-01-17T17:38:33.933Z,9.80
2019-01-17T17:40:21.256Z,7.40
2019-01-17T17:42:00.291Z,5.00
2019-01-17T17:43:38.649Z,3.80
2019-01-17T17:45:23.922Z,12.00
2019-01-17T17:47:02.771Z,9.60
2019-01-17T17:48:38.714Z,8.40
2019-01-17T17:50:18.487Z,15.20
2019-01-17T17:51:56.092Z,12.80
2019-01-17T17:53:44.248Z,10.80
2019-01-17T17:55:28.712Z,14.60
2019-01-17T17:57:11.601Z,10.20
2019-01-17T17:58:50.887Z,7.20
2019-01-17T18:00:47.898Z,15.80
2019-01-17T18:02:38.088Z,11.20
2019-01-17T18:04:18.330Z,9.80
2019-01-17T18:06:02.822Z,15.00
2019-01-17T18:07:42.031Z,6.20
2019-01-17T18:09:20.804Z,14.20
2019-01-17T18:11:00.056Z,16.20
2019-01-17T18:12:36.265Z,6.20
2019-01-17T18:14:14.171Z,7.00
2019-01-17T18:15:50.496Z,10.40
2019-01-17T18:17:27.318Z,10.40
2019-01-17T18:19:19.058Z,9.00
2019-01-17T18:20:58.274Z,15.20
2019-01-17T18:22:37.432Z,13.80
2019-01-17T18:24:15.524Z,11.60
2019-01-17T18:26:04.855Z,11.20
2019-01-17T18:27:46.450Z,9.60
2019-01-17T18:29:33.104Z,10.80
2019-01-17T18:31:14.860Z,8.40
2019-01-17T18:32:58.476Z,7.80
2019-01-17T18:34:43.267Z,9.60
2019-01-17T18:36:28.733Z,7.00
2019-01-17T18:38:05.263Z,8.20
2019-01-17T18:39:48.813Z,9.00
2019-01-17T18:41:30.193Z,8.20
2019-01-17T18:43:11.787Z,13.00
2019-01-17T18:44:59.120Z,8.20
2019-01-17T18:46:35.546Z,13.00
2019-01-17T18:48:15.163Z,7.80
2019-01-17T18:49:59.515Z,7.40
2019-01-17T18:51:41.528Z,14.20
2019-01-17T18:53:24.043Z,5.00
2019-01-17T18:55:04.844Z,10.80
2019-01-17T18:56:45.282Z,9.80
2019-01-17T18:58:27.390Z,15.20
2019-01-17T19:00:17.512Z,3.20
2019-01-17T19:02:02.015Z,4.80
2019-01-17T19:03:37.808Z,11.40
2019-01-17T19:05:18.757Z,6.80
2019-01-17T19:07:06.130Z,12.40
2019-01-17T19:08:47.792Z,9.80
2019-01-17T19:10:30.688Z,5.20
2019-01-17T19:12:11.342Z,10.00
2019-01-17T19:13:51.295Z,11.60
2019-01-17T19:15:40.002Z,6.20
2019-01-17T19:17:24.343Z,9.00
2019-01-17T19:18:59.793Z,6.00
2019-01-17T19:20:46.277Z,5.80
2019-01-17T19:22:32.482Z,5.00
2019-01-17T19:24:36.321Z,4.40
2019-01-17T19:26:21.394Z,10.00
2019-01-17T19:28:04.496Z,6.80
2019-01-17T19:29:54.013Z,14.00
2019-01-17T19:31:34.680Z,9.40
2019-01-17T19:33:16.103Z,12.80
2019-01-17T19:34:55.458Z,7.80
2019-01-17T19:36:35.107Z,10.40
2019-01-17T19:38:22.628Z,11.00
2019-01-17T19:40:00.266Z,7.00
2019-01-17T19:41:40.314Z,13.00
2019-01-17T19:43:18.812Z,7.00
2019-01-17T19:44:54.353Z,16.80
2019-01-17T19:46:34.931Z,8.20
2019-01-17T19:48:16.983Z,6.60
2019-01-17T19:49:56.650Z,4.00
2019-01-17T19:51:39.097Z,7.80
2019-01-17T19:53:18.873Z,14.60
2019-01-17T19:54:56.761Z,7.80
2019-01-17T19:56:53.322Z,9.80
2019-01-17T19:58:41.364Z,4.80
2019-01-17T20:00:19.977Z,12.20
2019-01-17T20:02:11.322Z,6.40
2019-01-17T20:03:48.093Z,10.80
2019-01-17T20:05:29.360Z,6.00
2019-01-17T20:07:11.441Z,9.40
2019-01-17T20:08:48.497Z,8.60
2019-01-17T20:10:32.563Z,6.00
2019-01-17T20:12:16.808Z,9.40
2019-01-17T20:14:02.035Z,9.00
2019-01-17T20:15:41.325Z,14.60
2019-01-17T20:17:26.841Z,7.20
2019-01-17T20:19:15.132Z,7.80
2019-01-17T20:21:01.640Z,8.20
2019-01-17T20:22:37.096Z,10.00
2019-01-17T20:24:19.647Z,15.00
2019-01-17T20:26:02.861Z,6.40
2019-01-17T20:27:49.248Z,11.80
2019-01-17T20:29:29.908Z,12.80
2019-01-17T20:31:13.066Z,9.60
2019-01-17T20:32:51.520Z,9.80
2019-01-17T20:34:34.462Z,6.40
2019-01-17T20:36:15.165Z,7.40
2019-01-17T20:38:00.444Z,17.80
2019-01-17T20:40:04.319Z,17.40
2019-01-17T20:41:45.509Z,10.80
2019-01-17T20:45:52.876Z,11.40
2019-01-17T20:47:41.852Z,3.80
2019-01-17T20:49:19.707Z,11.20
2019-01-17T20:50:59.991Z,9.80
2019-01-17T20:52:45.585Z,6.60
2019-01-17T20:54:33.208Z,4.80
2019-01-17T20:56:15.175Z,8.20
2019-01-17T20:57:52.778Z,12.20
2019-01-17T20:59:40.625Z,11.00
2019-01-17T21:01:52.303Z,7.20
2019-01-17T21:03:29.243Z,12.00
2019-01-17T21:05:13.816Z,9.00
2019-01-17T21:06:58.487Z,14.60
2019-01-17T21:08:34.503Z,12.80
2019-01-17T21:10:15.299Z,9.80
2019-01-17T21:11:55.657Z,12.00
2019-01-17T21:13:33.696Z,7.40
2019-01-17T21:15:13.393Z,6.40
2019-01-17T21:16:53.996Z,11.20
2019-01-17T21:18:37.460Z,9.60
2019-01-17T21:20:21.189Z,9.20
2019-01-17T21:21:59.278Z,3.00
2019-01-17T21:23:37.327Z,10.00
2019-01-17T21:25:25.009Z,13.60
2019-01-17T21:27:09.306Z,11.20
2019-01-17T21:28:49.194Z,11.40
2019-01-17T21:30:27.401Z,9.80
2019-01-17T21:32:12.535Z,12.60
2019-01-17T21:33:59.329Z,6.60
2019-01-17T21:35:53.469Z,10.80
2019-01-17T21:37:31.431Z,9.60
2019-01-17T21:39:17.131Z,11.20
2019-01-17T21:40:58.364Z,7.00
2019-01-17T21:42:39.738Z,7.60
2019-01-17T21:44:21.967Z,14.60
2019-01-17T21:45:57.528Z,6.00
2019-01-17T21:47:35.383Z,7.40
2019-01-17T21:49:20.394Z,6.60
2019-01-17T21:51:01.383Z,13.60
2019-01-17T21:52:42.609Z,1.00
2019-01-17T21:54:19.692Z,4.40
2019-01-17T21:56:02.160Z,7.60
2019-01-17T21:57:42.957Z,9.60
2019-01-17T21:59:25.842Z,14.40
2019-01-17T22:01:03.722Z,6.60
2019-01-17T22:02:43.747Z,9.60
2019-01-17T22:04:27.976Z,9.00
2019-01-17T22:06:07.722Z,9.40
2019-01-17T22:07:56.742Z,16.80
2019-01-17T22:09:36.402Z,7.00
2019-01-17T22:11:38.285Z,9.60
2019-01-17T22:13:19.401Z,4.80
2019-01-17T22:15:02.843Z,13.80
2019-01-17T22:16:43.220Z,7.80
2019-01-17T22:18:18.997Z,11.00
2019-01-17T22:19:59.352Z,10.20
2019-01-17T22:21:38.408Z,18.00
2019-01-17T22:23:32.112Z,10.60
2019-01-17T22:25:24.302Z,10.20
2019-01-17T22:27:01.773Z,13.20
2019-01-17T22:28:43.387Z,11.80
2019-01-17T22:30:33.584Z,13.00
2019-01-17T22:32:28.153Z,15.20
2019-01-17T22:34:10.891Z,10.20
2019-01-17T22:36:08.606Z,16.60
2019-01-17T22:37:53.514Z,12.00
2019-01-17T22:39:35.965Z,14.80
2019-01-17T22:41:14.811Z,21.40